sensor_id;sensor_type;location;lat;lon;timestamp;temperature;humidity
7970;DHT22;4030;52.362;9.206;2023-12-20T00:00:26;8.60;99.90
7970;DHT22;4030;52.362;9.206;2023-12-20T00:02:51;8.60;99.90
7970;DHT22;4030;52.362;9.206;2023-12-20T00:05:17;8.60;99.90
7970;DHT22;4030;52.362;9.206;2023-12-20T00:07:42;8.60;99.90
7970;DHT22;4030;52.362;9.206;2023-12-20T00:10:09;8.60;99.90
7970;DHT22;4030;52.362;9.206;2023-12-20T00:12:35;8.50;99.90
7970;DHT22;4030;52.362;9.206;2023-12-20T00:15:00;8.60;99.90
7970;DHT22;4030;52.362;9.206;2023-12-20T00:17:26;8.50;99.90
7970;DHT22;4030;52.362;9.206;2023-12-20T00:19:51;8.50;99.90
7970;DHT22;4030;52.362;9.206;2023-12-20T00:22:17;8.50;99.90
7970;DHT22;4030;52.362;9.206;2023-12-20T00:24:43;8.50;99.90
7970;DHT22;4030;52.362;9.206;2023-12-20T00:27:08;8.50;99.90
7970;DHT22;4030;52.362;9.206;2023-12-20T00:29:34;8.50;99.90
7970;DHT22;4030;52.362;9.206;2023-12-20T00:32:00;8.40;99.90
7970;DHT22;4030;52.362;9.206;2023-12-20T00:34:25;8.40;99.90
7970;DHT22;4030;52.362;9.206;2023-12-20T00:36:51;8.40;99.90
7970;DHT22;4030;52.362;9.206;2023-12-20T00:39:17;8.40;99.90
7970;DHT22;4030;52.362;9.206;2023-12-20T00:41:42;8.40;99.90
7970;DHT22;4030;52.362;9.206;2023-12-20T00:44:08;8.40;99.90
7970;DHT22;4030;52.362;9.206;2023-12-20T00:46:34;8.40;99.90
7970;DHT22;4030;52.362;9.206;2023-12-20T00:48:59;8.40;99.90
7970;DHT22;4030;52.362;9.206;2023-12-20T00:51:25;8.30;99.90
7970;DHT22;4030;52.362;9.206;2023-12-20T00:53:50;8.30;99.90
7970;DHT22;4030;52.362;9.206;2023-12-20T00:56:20;8.30;99.90
7970;DHT22;4030;52.362;9.206;2023-12-20T00:58:46;8.30;99.90
7970;DHT22;4030;52.362;9.206;2023-12-20T01:01:11;8.30;99.90
7970;DHT22;4030;52.362;9.206;2023-12-20T01:03:38;8.30;99.90
7970;DHT22;4030;52.362;9.206;2023-12-20T01:06:04;8.20;99.90
7970;DHT22;4030;52.362;9.206;2023-12-20T01:08:30;8.20;99.90
7970;DHT22;4030;52.362;9.206;2023-12-20T01:10:56;8.20;99.90
7970;DHT22;4030;52.362;9.206;2023-12-20T01:13:21;8.20;99.90
7970;DHT22;4030;52.362;9.206;2023-12-20T01:15:47;8.20;99.90
7970;DHT22;4030;52.362;9.206;2023-12-20T01:18:13;8.20;99.90
7970;DHT22;4030;52.362;9.206;2023-12-20T01:20:39;8.20;99.90
7970;DHT22;4030;52.362;9.206;2023-12-20T01:23:05;8.20;99.90
7970;DHT22;4030;52.362;9.206;2023-12-20T01:25:31;8.20;99.90
7970;DHT22;4030;52.362;9.206;2023-12-20T01:27:56;8.20;99.90
7970;DHT22;4030;52.362;9.206;2023-12-20T01:30:22;8.20;99.90
7970;DHT22;4030;52.362;9.206;2023-12-20T01:32:48;8.20;99.90
7970;DHT22;4030;52.362;9.206;2023-12-20T01:35:13;8.20;99.90
7970;DHT22;4030;52.362;9.206;2023-12-20T01:37:39;8.20;99.90
7970;DHT22;4030;52.362;9.206;2023-12-20T01:40:05;8.20;99.90
7970;DHT22;4030;52.362;9.206;2023-12-20T01:42:31;8.10;99.90
7970;DHT22;4030;52.362;9.206;2023-12-20T01:44:57;8.10;99.90
7970;DHT22;4030;52.362;9.206;2023-12-20T01:47:23;8.10;99.90
7970;DHT22;4030;52.362;9.206;2023-12-20T01:49:49;8.10;99.90
7970;DHT22;4030;52.362;9.206;2023-12-20T01:52:15;8.10;99.90
7970;DHT22;4030;52.362;9.206;2023-12-20T01:54:42;8.10;99.90
7970;DHT22;4030;52.362;9.206;2023-12-20T01:57:08;8.10;99.90
7970;DHT22;4030;52.362;9.206;2023-12-20T01:59:35;8.00;99.90
7970;DHT22;4030;52.362;9.206;2023-12-20T02:02:01;8.00;99.90
7970;DHT22;4030;52.362;9.206;2023-12-20T02:04:29;8.00;99.90
7970;DHT22;4030;52.362;9.206;2023-12-20T02:06:55;8.00;99.90
7970;DHT22;4030;52.362;9.206;2023-12-20T02:09:22;8.00;99.90
7970;DHT22;4030;52.362;9.206;2023-12-20T02:11:48;8.00;99.90
7970;DHT22;4030;52.362;9.206;2023-12-20T02:14:14;8.00;99.90
7970;DHT22;4030;52.362;9.206;2023-12-20T02:16:40;8.00;99.90
7970;DHT22;4030;52.362;9.206;2023-12-20T02:19:13;7.90;99.90
7970;DHT22;4030;52.362;9.206;2023-12-20T02:21:40;7.90;99.90
7970;DHT22;4030;52.362;9.206;2023-12-20T02:24:05;7.90;99.90
7970;DHT22;4030;52.362;9.206;2023-12-20T02:26:34;7.90;99.90
7970;DHT22;4030;52.362;9.206;2023-12-20T02:29:00;7.90;99.90
7970;DHT22;4030;52.362;9.206;2023-12-20T02:31:26;7.80;99.90
7970;DHT22;4030;52.362;9.206;2023-12-20T02:33:52;7.80;99.90
7970;DHT22;4030;52.362;9.206;2023-12-20T02:36:18;7.80;99.90
7970;DHT22;4030;52.362;9.206;2023-12-20T02:38:43;7.80;99.90
7970;DHT22;4030;52.362;9.206;2023-12-20T02:41:09;7.80;99.90
7970;DHT22;4030;52.362;9.206;2023-12-20T02:43:35;7.80;99.90
7970;DHT22;4030;52.362;9.206;2023-12-20T02:46:00;7.70;99.90
7970;DHT22;4030;52.362;9.206;2023-12-20T02:48:26;7.70;99.90
7970;DHT22;4030;52.362;9.206;2023-12-20T02:50:52;7.80;99.90
7970;DHT22;4030;52.362;9.206;2023-12-20T02:53:17;7.80;99.90
7970;DHT22;4030;52.362;9.206;2023-12-20T02:55:43;7.70;99.90
7970;DHT22;4030;52.362;9.206;2023-12-20T02:58:09;7.70;99.90
7970;DHT22;4030;52.362;9.206;2023-12-20T03:00:34;7.70;99.90
7970;DHT22;4030;52.362;9.206;2023-12-20T03:03:00;7.70;99.90
7970;DHT22;4030;52.362;9.206;2023-12-20T03:05:25;7.70;99.90
7970;DHT22;4030;52.362;9.206;2023-12-20T03:07:51;7.60;99.90
7970;DHT22;4030;52.362;9.206;2023-12-20T03:10:18;7.60;99.90
7970;DHT22;4030;52.362;9.206;2023-12-20T03:12:44;7.60;99.90
7970;DHT22;4030;52.362;9.206;2023-12-20T03:15:10;7.60;99.90
7970;DHT22;4030;52.362;9.206;2023-12-20T03:17:36;7.60;99.90
7970;DHT22;4030;52.362;9.206;2023-12-20T03:20:02;7.60;99.90
7970;DHT22;4030;52.362;9.206;2023-12-20T03:22:27;7.60;99.90
7970;DHT22;4030;52.362;9.206;2023-12-20T03:24:53;7.60;99.90
7970;DHT22;4030;52.362;9.206;2023-12-20T03:27:19;7.60;99.90
7970;DHT22;4030;52.362;9.206;2023-12-20T03:29:44;7.60;99.90
7970;DHT22;4030;52.362;9.206;2023-12-20T03:32:10;7.60;99.90
7970;DHT22;4030;52.362;9.206;2023-12-20T03:34:36;7.50;99.90
7970;DHT22;4030;52.362;9.206;2023-12-20T03:37:01;7.50;99.90
7970;DHT22;4030;52.362;9.206;2023-12-20T03:39:27;7.50;99.90
7970;DHT22;4030;52.362;9.206;2023-12-20T03:41:53;7.50;99.90
7970;DHT22;4030;52.362;9.206;2023-12-20T03:44:18;7.50;99.90
7970;DHT22;4030;52.362;9.206;2023-12-20T03:46:44;7.50;99.90
7970;DHT22;4030;52.362;9.206;2023-12-20T03:49:11;7.50;99.90
7970;DHT22;4030;52.362;9.206;2023-12-20T03:51:36;7.60;99.90
7970;DHT22;4030;52.362;9.206;2023-12-20T03:54:02;7.60;99.90
7970;DHT22;4030;52.362;9.206;2023-12-20T03:56:28;7.60;99.90
7970;DHT22;4030;52.362;9.206;2023-12-20T03:58:54;7.60;99.90
7970;DHT22;4030;52.362;9.206;2023-12-20T04:01:19;7.60;99.90
7970;DHT22;4030;52.362;9.206;2023-12-20T04:03:45;7.60;99.90
7970;DHT22;4030;52.362;9.206;2023-12-20T04:06:17;7.60;99.90
7970;DHT22;4030;52.362;9.206;2023-12-20T04:08:43;7.60;99.90
7970;DHT22;4030;52.362;9.206;2023-12-20T04:11:08;7.60;99.90
7970;DHT22;4030;52.362;9.206;2023-12-20T04:13:34;7.60;99.90
7970;DHT22;4030;52.362;9.206;2023-12-20T04:16:00;7.60;99.90
7970;DHT22;4030;52.362;9.206;2023-12-20T04:18:25;7.60;99.90
7970;DHT22;4030;52.362;9.206;2023-12-20T04:20:51;7.60;99.90
7970;DHT22;4030;52.362;9.206;2023-12-20T04:23:17;7.60;99.90
7970;DHT22;4030;52.362;9.206;2023-12-20T04:25:42;7.60;99.90
7970;DHT22;4030;52.362;9.206;2023-12-20T04:28:08;7.60;99.90
7970;DHT22;4030;52.362;9.206;2023-12-20T04:30:34;7.60;99.90
7970;DHT22;4030;52.362;9.206;2023-12-20T04:33:00;7.60;99.90
7970;DHT22;4030;52.362;9.206;2023-12-20T04:35:26;7.60;99.90
7970;DHT22;4030;52.362;9.206;2023-12-20T04:37:51;7.60;99.90
7970;DHT22;4030;52.362;9.206;2023-12-20T04:40:17;7.60;99.90
7970;DHT22;4030;52.362;9.206;2023-12-20T04:42:43;7.60;99.90
7970;DHT22;4030;52.362;9.206;2023-12-20T04:45:09;7.60;99.90
7970;DHT22;4030;52.362;9.206;2023-12-20T04:47:34;7.60;99.90
7970;DHT22;4030;52.362;9.206;2023-12-20T04:50:00;7.60;99.90
7970;DHT22;4030;52.362;9.206;2023-12-20T04:52:26;7.60;99.90
7970;DHT22;4030;52.362;9.206;2023-12-20T04:54:51;7.60;99.90
7970;DHT22;4030;52.362;9.206;2023-12-20T04:57:17;7.60;99.90
7970;DHT22;4030;52.362;9.206;2023-12-20T04:59:43;7.60;99.90
7970;DHT22;4030;52.362;9.206;2023-12-20T05:02:08;7.60;99.90
7970;DHT22;4030;52.362;9.206;2023-12-20T05:04:34;7.60;99.90
7970;DHT22;4030;52.362;9.206;2023-12-20T05:07:00;7.60;99.90
7970;DHT22;4030;52.362;9.206;2023-12-20T05:09:26;7.60;99.90
7970;DHT22;4030;52.362;9.206;2023-12-20T05:11:51;7.70;99.90
7970;DHT22;4030;52.362;9.206;2023-12-20T05:14:17;7.70;99.90
7970;DHT22;4030;52.362;9.206;2023-12-20T05:16:43;7.70;99.90
7970;DHT22;4030;52.362;9.206;2023-12-20T05:19:08;7.70;99.90
7970;DHT22;4030;52.362;9.206;2023-12-20T05:21:34;7.70;99.90
7970;DHT22;4030;52.362;9.206;2023-12-20T05:23:59;7.70;99.90
7970;DHT22;4030;52.362;9.206;2023-12-20T05:26:26;7.70;99.90
7970;DHT22;4030;52.362;9.206;2023-12-20T05:28:51;7.70;99.90
7970;DHT22;4030;52.362;9.206;2023-12-20T05:31:17;7.70;99.90
7970;DHT22;4030;52.362;9.206;2023-12-20T05:33:43;7.70;99.90
7970;DHT22;4030;52.362;9.206;2023-12-20T05:36:09;7.70;99.90
7970;DHT22;4030;52.362;9.206;2023-12-20T05:38:36;7.70;99.90
7970;DHT22;4030;52.362;9.206;2023-12-20T05:41:02;7.70;99.90
7970;DHT22;4030;52.362;9.206;2023-12-20T05:43:29;7.60;99.90
7970;DHT22;4030;52.362;9.206;2023-12-20T05:45:54;7.70;99.90
7970;DHT22;4030;52.362;9.206;2023-12-20T05:48:20;7.70;99.90
7970;DHT22;4030;52.362;9.206;2023-12-20T05:50:46;7.70;99.90
7970;DHT22;4030;52.362;9.206;2023-12-20T05:53:11;7.70;99.90
7970;DHT22;4030;52.362;9.206;2023-12-20T05:55:37;7.70;99.90
7970;DHT22;4030;52.362;9.206;2023-12-20T05:58:03;7.70;99.90
7970;DHT22;4030;52.362;9.206;2023-12-20T06:00:28;7.60;99.90
7970;DHT22;4030;52.362;9.206;2023-12-20T06:02:54;7.70;99.90
7970;DHT22;4030;52.362;9.206;2023-12-20T06:05:20;7.60;99.90
7970;DHT22;4030;52.362;9.206;2023-12-20T06:07:45;7.60;99.90
7970;DHT22;4030;52.362;9.206;2023-12-20T06:10:13;7.60;99.90
7970;DHT22;4030;52.362;9.206;2023-12-20T06:12:39;7.60;99.90
7970;DHT22;4030;52.362;9.206;2023-12-20T06:15:06;7.60;99.90
7970;DHT22;4030;52.362;9.206;2023-12-20T06:17:32;7.60;99.90
7970;DHT22;4030;52.362;9.206;2023-12-20T06:19:57;7.60;99.90
7970;DHT22;4030;52.362;9.206;2023-12-20T06:22:23;7.60;99.90
7970;DHT22;4030;52.362;9.206;2023-12-20T06:24:49;7.60;99.90
7970;DHT22;4030;52.362;9.206;2023-12-20T06:27:14;7.60;99.90
7970;DHT22;4030;52.362;9.206;2023-12-20T06:29:40;7.60;99.90
7970;DHT22;4030;52.362;9.206;2023-12-20T06:32:06;7.60;99.90
7970;DHT22;4030;52.362;9.206;2023-12-20T06:34:32;7.60;99.90
7970;DHT22;4030;52.362;9.206;2023-12-20T06:36:58;7.60;99.90
7970;DHT22;4030;52.362;9.206;2023-12-20T06:39:23;7.60;99.90
7970;DHT22;4030;52.362;9.206;2023-12-20T06:41:49;7.60;99.90
7970;DHT22;4030;52.362;9.206;2023-12-20T06:44:15;7.60;99.90
7970;DHT22;4030;52.362;9.206;2023-12-20T06:46:40;7.60;99.90
7970;DHT22;4030;52.362;9.206;2023-12-20T06:49:06;7.60;99.90
7970;DHT22;4030;52.362;9.206;2023-12-20T06:51:32;7.60;99.90
7970;DHT22;4030;52.362;9.206;2023-12-20T06:53:57;7.60;99.90
7970;DHT22;4030;52.362;9.206;2023-12-20T06:56:23;7.60;99.90
7970;DHT22;4030;52.362;9.206;2023-12-20T06:58:49;7.60;99.90
7970;DHT22;4030;52.362;9.206;2023-12-20T07:01:15;7.60;99.90
7970;DHT22;4030;52.362;9.206;2023-12-20T07:03:41;7.60;99.90
7970;DHT22;4030;52.362;9.206;2023-12-20T07:06:08;7.60;99.90
7970;DHT22;4030;52.362;9.206;2023-12-20T07:08:33;7.60;99.90
7970;DHT22;4030;52.362;9.206;2023-12-20T07:10:59;7.60;99.90
7970;DHT22;4030;52.362;9.206;2023-12-20T07:13:25;7.60;99.90
7970;DHT22;4030;52.362;9.206;2023-12-20T07:15:51;7.60;99.90
7970;DHT22;4030;52.362;9.206;2023-12-20T07:18:16;7.60;99.90
7970;DHT22;4030;52.362;9.206;2023-12-20T07:20:42;7.60;99.90
7970;DHT22;4030;52.362;9.206;2023-12-20T07:23:08;7.60;99.90
7970;DHT22;4030;52.362;9.206;2023-12-20T07:25:34;7.60;99.90
7970;DHT22;4030;52.362;9.206;2023-12-20T07:27:59;7.60;99.90
7970;DHT22;4030;52.362;9.206;2023-12-20T07:30:25;7.60;99.90
7970;DHT22;4030;52.362;9.206;2023-12-20T07:32:51;7.60;99.90
7970;DHT22;4030;52.362;9.206;2023-12-20T07:35:17;7.60;99.90
7970;DHT22;4030;52.362;9.206;2023-12-20T07:37:43;7.60;99.90
7970;DHT22;4030;52.362;9.206;2023-12-20T07:40:09;7.60;99.90
7970;DHT22;4030;52.362;9.206;2023-12-20T07:42:35;7.60;99.90
7970;DHT22;4030;52.362;9.206;2023-12-20T07:45:01;7.60;99.90
7970;DHT22;4030;52.362;9.206;2023-12-20T07:47:27;7.60;99.90
7970;DHT22;4030;52.362;9.206;2023-12-20T07:49:53;7.60;99.90
7970;DHT22;4030;52.362;9.206;2023-12-20T07:52:19;7.60;99.90
7970;DHT22;4030;52.362;9.206;2023-12-20T07:54:45;7.60;99.90
7970;DHT22;4030;52.362;9.206;2023-12-20T07:57:11;7.60;99.90
7970;DHT22;4030;52.362;9.206;2023-12-20T07:59:37;7.60;99.90
7970;DHT22;4030;52.362;9.206;2023-12-20T08:02:03;7.60;99.90
7970;DHT22;4030;52.362;9.206;2023-12-20T08:04:29;7.70;99.90
7970;DHT22;4030;52.362;9.206;2023-12-20T08:06:55;7.60;99.90
7970;DHT22;4030;52.362;9.206;2023-12-20T08:09:20;7.70;99.90
7970;DHT22;4030;52.362;9.206;2023-12-20T08:11:49;7.70;99.90
7970;DHT22;4030;52.362;9.206;2023-12-20T08:14:15;7.70;99.90
7970;DHT22;4030;52.362;9.206;2023-12-20T08:16:41;7.60;99.90
7970;DHT22;4030;52.362;9.206;2023-12-20T08:19:07;7.70;99.90
7970;DHT22;4030;52.362;9.206;2023-12-20T08:21:33;7.70;99.90
7970;DHT22;4030;52.362;9.206;2023-12-20T08:23:59;7.70;99.90
7970;DHT22;4030;52.362;9.206;2023-12-20T08:26:26;7.70;99.90
7970;DHT22;4030;52.362;9.206;2023-12-20T08:28:52;7.70;99.90
7970;DHT22;4030;52.362;9.206;2023-12-20T08:31:18;7.70;99.90
7970;DHT22;4030;52.362;9.206;2023-12-20T08:33:45;7.70;99.90
7970;DHT22;4030;52.362;9.206;2023-12-20T08:36:12;7.70;99.90
7970;DHT22;4030;52.362;9.206;2023-12-20T08:38:38;7.80;99.90
7970;DHT22;4030;52.362;9.206;2023-12-20T08:41:04;7.80;99.90
7970;DHT22;4030;52.362;9.206;2023-12-20T08:43:31;7.80;99.90
7970;DHT22;4030;52.362;9.206;2023-12-20T08:45:57;7.80;99.90
7970;DHT22;4030;52.362;9.206;2023-12-20T08:48:23;7.80;99.90
7970;DHT22;4030;52.362;9.206;2023-12-20T08:50:48;7.80;99.90
7970;DHT22;4030;52.362;9.206;2023-12-20T08:53:15;7.80;99.90
7970;DHT22;4030;52.362;9.206;2023-12-20T08:55:42;7.80;99.90
7970;DHT22;4030;52.362;9.206;2023-12-20T08:58:08;7.80;99.90
7970;DHT22;4030;52.362;9.206;2023-12-20T09:00:36;7.80;99.90
7970;DHT22;4030;52.362;9.206;2023-12-20T09:03:04;7.80;99.90
7970;DHT22;4030;52.362;9.206;2023-12-20T09:05:30;7.90;99.90
7970;DHT22;4030;52.362;9.206;2023-12-20T09:07:56;7.90;99.90
7970;DHT22;4030;52.362;9.206;2023-12-20T09:10:21;7.90;99.90
7970;DHT22;4030;52.362;9.206;2023-12-20T09:12:51;7.90;99.90
7970;DHT22;4030;52.362;9.206;2023-12-20T09:15:24;7.90;99.90
7970;DHT22;4030;52.362;9.206;2023-12-20T09:17:51;7.90;99.90
7970;DHT22;4030;52.362;9.206;2023-12-20T09:20:17;7.90;99.90
7970;DHT22;4030;52.362;9.206;2023-12-20T09:22:42;7.90;99.90
7970;DHT22;4030;52.362;9.206;2023-12-20T09:25:09;7.90;99.90
7970;DHT22;4030;52.362;9.206;2023-12-20T09:27:36;8.00;99.90
7970;DHT22;4030;52.362;9.206;2023-12-20T09:30:01;8.00;99.90
7970;DHT22;4030;52.362;9.206;2023-12-20T09:32:27;8.00;99.90
7970;DHT22;4030;52.362;9.206;2023-12-20T09:34:53;8.00;99.90
7970;DHT22;4030;52.362;9.206;2023-12-20T09:37:18;8.00;99.90
7970;DHT22;4030;52.362;9.206;2023-12-20T09:39:44;8.00;99.90
7970;DHT22;4030;52.362;9.206;2023-12-20T09:42:11;8.10;99.90
7970;DHT22;4030;52.362;9.206;2023-12-20T09:44:39;8.10;99.90
7970;DHT22;4030;52.362;9.206;2023-12-20T09:47:08;8.10;99.90
7970;DHT22;4030;52.362;9.206;2023-12-20T09:49:34;8.10;99.90
7970;DHT22;4030;52.362;9.206;2023-12-20T09:52:00;8.10;99.90
7970;DHT22;4030;52.362;9.206;2023-12-20T09:54:28;8.20;99.90
7970;DHT22;4030;52.362;9.206;2023-12-20T09:56:54;8.10;99.90
7970;DHT22;4030;52.362;9.206;2023-12-20T09:59:20;8.10;99.90
7970;DHT22;4030;52.362;9.206;2023-12-20T10:01:45;8.20;99.90
7970;DHT22;4030;52.362;9.206;2023-12-20T10:04:12;8.10;99.90
7970;DHT22;4030;52.362;9.206;2023-12-20T10:06:43;8.20;99.90
7970;DHT22;4030;52.362;9.206;2023-12-20T10:09:10;8.20;99.90
7970;DHT22;4030;52.362;9.206;2023-12-20T10:11:37;8.20;99.90
7970;DHT22;4030;52.362;9.206;2023-12-20T10:14:04;8.20;99.90
7970;DHT22;4030;52.362;9.206;2023-12-20T10:16:30;8.20;99.90
7970;DHT22;4030;52.362;9.206;2023-12-20T10:18:56;8.20;99.90
7970;DHT22;4030;52.362;9.206;2023-12-20T10:21:23;8.20;99.90
7970;DHT22;4030;52.362;9.206;2023-12-20T10:23:50;8.20;99.90
7970;DHT22;4030;52.362;9.206;2023-12-20T10:26:23;8.20;99.90
7970;DHT22;4030;52.362;9.206;2023-12-20T10:28:59;8.10;99.90
7970;DHT22;4030;52.362;9.206;2023-12-20T10:31:33;8.20;99.90
7970;DHT22;4030;52.362;9.206;2023-12-20T10:34:01;8.10;99.90
7970;DHT22;4030;52.362;9.206;2023-12-20T10:36:32;8.20;99.90
7970;DHT22;4030;52.362;9.206;2023-12-20T10:38:59;8.20;99.90
7970;DHT22;4030;52.362;9.206;2023-12-20T10:41:26;8.20;99.90
7970;DHT22;4030;52.362;9.206;2023-12-20T10:44:03;8.20;99.90
7970;DHT22;4030;52.362;9.206;2023-12-20T10:46:30;8.30;99.90
7970;DHT22;4030;52.362;9.206;2023-12-20T10:48:58;8.30;99.90
7970;DHT22;4030;52.362;9.206;2023-12-20T10:51:24;8.30;99.90
7970;DHT22;4030;52.362;9.206;2023-12-20T10:53:55;8.30;99.90
7970;DHT22;4030;52.362;9.206;2023-12-20T10:56:21;8.40;99.90
7970;DHT22;4030;52.362;9.206;2023-12-20T10:58:49;8.40;99.90
7970;DHT22;4030;52.362;9.206;2023-12-20T11:01:17;8.50;99.90
7970;DHT22;4030;52.362;9.206;2023-12-20T11:03:48;8.50;99.90
7970;DHT22;4030;52.362;9.206;2023-12-20T11:06:33;8.50;99.90
7970;DHT22;4030;52.362;9.206;2023-12-20T11:11:51;8.50;99.90
7970;DHT22;4030;52.362;9.206;2023-12-20T11:14:50;8.50;99.90
7970;DHT22;4030;52.362;9.206;2023-12-20T11:17:17;8.50;99.90
7970;DHT22;4030;52.362;9.206;2023-12-20T11:20:03;8.60;99.90
7970;DHT22;4030;52.362;9.206;2023-12-20T11:22:31;8.60;99.90
7970;DHT22;4030;52.362;9.206;2023-12-20T11:25:08;8.50;99.90
7970;DHT22;4030;52.362;9.206;2023-12-20T11:27:36;8.50;99.90
7970;DHT22;4030;52.362;9.206;2023-12-20T11:30:06;8.50;99.90
7970;DHT22;4030;52.362;9.206;2023-12-20T11:32:34;8.50;99.90
7970;DHT22;4030;52.362;9.206;2023-12-20T11:37:38;8.40;99.90
7970;DHT22;4030;52.362;9.206;2023-12-20T11:40:08;8.40;99.90
7970;DHT22;4030;52.362;9.206;2023-12-20T11:42:41;8.30;99.90
7970;DHT22;4030;52.362;9.206;2023-12-20T11:45:13;8.20;99.90
7970;DHT22;4030;52.362;9.206;2023-12-20T11:47:43;8.20;99.90
7970;DHT22;4030;52.362;9.206;2023-12-20T11:50:12;8.10;99.90
7970;DHT22;4030;52.362;9.206;2023-12-20T11:52:37;8.10;99.90
7970;DHT22;4030;52.362;9.206;2023-12-20T11:55:04;8.00;99.90
7970;DHT22;4030;52.362;9.206;2023-12-20T11:57:33;8.00;99.90
7970;DHT22;4030;52.362;9.206;2023-12-20T11:59:59;7.90;99.90
7970;DHT22;4030;52.362;9.206;2023-12-20T12:02:25;7.90;99.90
7970;DHT22;4030;52.362;9.206;2023-12-20T12:04:51;7.90;99.90
7970;DHT22;4030;52.362;9.206;2023-12-20T12:07:17;7.90;99.90
7970;DHT22;4030;52.362;9.206;2023-12-20T12:09:43;7.90;99.90
7970;DHT22;4030;52.362;9.206;2023-12-20T12:12:10;7.90;99.90
7970;DHT22;4030;52.362;9.206;2023-12-20T12:14:37;7.80;99.90
7970;DHT22;4030;52.362;9.206;2023-12-20T12:17:03;7.90;99.90
7970;DHT22;4030;52.362;9.206;2023-12-20T12:19:29;7.90;99.90
7970;DHT22;4030;52.362;9.206;2023-12-20T12:22:14;7.80;99.90
7970;DHT22;4030;52.362;9.206;2023-12-20T12:24:41;7.80;99.90
7970;DHT22;4030;52.362;9.206;2023-12-20T12:27:11;7.90;99.90
7970;DHT22;4030;52.362;9.206;2023-12-20T12:29:37;7.90;99.90
7970;DHT22;4030;52.362;9.206;2023-12-20T12:32:08;8.00;99.90
7970;DHT22;4030;52.362;9.206;2023-12-20T12:34:35;8.10;99.90
7970;DHT22;4030;52.362;9.206;2023-12-20T12:37:03;8.10;99.90
7970;DHT22;4030;52.362;9.206;2023-12-20T12:39:29;8.10;99.90
7970;DHT22;4030;52.362;9.206;2023-12-20T12:41:56;8.10;99.90
7970;DHT22;4030;52.362;9.206;2023-12-20T12:44:22;8.20;99.90
7970;DHT22;4030;52.362;9.206;2023-12-20T12:46:50;8.30;99.90
7970;DHT22;4030;52.362;9.206;2023-12-20T12:49:21;8.40;99.90
7970;DHT22;4030;52.362;9.206;2023-12-20T12:51:47;8.40;99.90
7970;DHT22;4030;52.362;9.206;2023-12-20T12:54:13;8.50;99.90
7970;DHT22;4030;52.362;9.206;2023-12-20T12:56:41;8.60;99.90
7970;DHT22;4030;52.362;9.206;2023-12-20T12:59:06;8.60;99.90
7970;DHT22;4030;52.362;9.206;2023-12-20T13:01:32;8.60;99.90
7970;DHT22;4030;52.362;9.206;2023-12-20T13:03:58;8.60;99.90
7970;DHT22;4030;52.362;9.206;2023-12-20T13:06:23;8.60;99.90
7970;DHT22;4030;52.362;9.206;2023-12-20T13:08:49;8.60;99.90
7970;DHT22;4030;52.362;9.206;2023-12-20T13:11:15;8.60;99.90
7970;DHT22;4030;52.362;9.206;2023-12-20T13:13:41;8.60;99.90
7970;DHT22;4030;52.362;9.206;2023-12-20T13:16:07;8.60;99.90
7970;DHT22;4030;52.362;9.206;2023-12-20T13:18:33;8.50;99.90
7970;DHT22;4030;52.362;9.206;2023-12-20T13:20:58;8.60;99.90
7970;DHT22;4030;52.362;9.206;2023-12-20T13:23:24;8.50;99.90
7970;DHT22;4030;52.362;9.206;2023-12-20T13:25:49;8.50;99.90
7970;DHT22;4030;52.362;9.206;2023-12-20T13:28:15;8.50;99.90
7970;DHT22;4030;52.362;9.206;2023-12-20T13:30:41;8.60;99.90
7970;DHT22;4030;52.362;9.206;2023-12-20T13:33:07;8.50;99.90
7970;DHT22;4030;52.362;9.206;2023-12-20T13:35:34;8.50;99.90
7970;DHT22;4030;52.362;9.206;2023-12-20T13:38:00;8.50;99.90
7970;DHT22;4030;52.362;9.206;2023-12-20T13:40:26;8.50;99.90
7970;DHT22;4030;52.362;9.206;2023-12-20T13:42:52;8.50;99.90
7970;DHT22;4030;52.362;9.206;2023-12-20T13:45:18;8.50;99.90
7970;DHT22;4030;52.362;9.206;2023-12-20T13:47:43;8.50;99.90
7970;DHT22;4030;52.362;9.206;2023-12-20T13:50:09;8.50;99.90
7970;DHT22;4030;52.362;9.206;2023-12-20T13:52:35;8.60;99.90
7970;DHT22;4030;52.362;9.206;2023-12-20T13:55:01;8.50;99.90
7970;DHT22;4030;52.362;9.206;2023-12-20T13:57:27;8.50;99.90
7970;DHT22;4030;52.362;9.206;2023-12-20T13:59:55;8.50;99.90
7970;DHT22;4030;52.362;9.206;2023-12-20T14:02:22;8.50;99.90
7970;DHT22;4030;52.362;9.206;2023-12-20T14:04:48;8.50;99.90
7970;DHT22;4030;52.362;9.206;2023-12-20T14:07:13;8.50;99.90
7970;DHT22;4030;52.362;9.206;2023-12-20T14:09:40;8.50;99.90
7970;DHT22;4030;52.362;9.206;2023-12-20T14:12:13;8.40;99.90
7970;DHT22;4030;52.362;9.206;2023-12-20T14:14:46;8.40;99.90
7970;DHT22;4030;52.362;9.206;2023-12-20T14:17:11;8.40;99.90
7970;DHT22;4030;52.362;9.206;2023-12-20T14:19:37;8.30;99.90
7970;DHT22;4030;52.362;9.206;2023-12-20T14:22:03;8.40;99.90
7970;DHT22;4030;52.362;9.206;2023-12-20T14:24:29;8.30;99.90
7970;DHT22;4030;52.362;9.206;2023-12-20T14:26:55;8.30;99.90
7970;DHT22;4030;52.362;9.206;2023-12-20T14:29:21;8.30;99.90
7970;DHT22;4030;52.362;9.206;2023-12-20T14:31:46;8.30;99.90
7970;DHT22;4030;52.362;9.206;2023-12-20T14:34:12;8.30;99.90
7970;DHT22;4030;52.362;9.206;2023-12-20T14:36:38;8.30;99.90
7970;DHT22;4030;52.362;9.206;2023-12-20T14:39:04;8.30;99.90
7970;DHT22;4030;52.362;9.206;2023-12-20T14:41:33;8.30;99.90
7970;DHT22;4030;52.362;9.206;2023-12-20T14:43:59;8.30;99.90
7970;DHT22;4030;52.362;9.206;2023-12-20T14:46:30;8.20;99.90
7970;DHT22;4030;52.362;9.206;2023-12-20T14:48:55;8.20;99.90
7970;DHT22;4030;52.362;9.206;2023-12-20T14:51:21;8.30;99.90
7970;DHT22;4030;52.362;9.206;2023-12-20T14:53:47;8.50;99.90
7970;DHT22;4030;52.362;9.206;2023-12-20T14:56:12;8.60;99.90
7970;DHT22;4030;52.362;9.206;2023-12-20T14:58:38;8.70;99.90
7970;DHT22;4030;52.362;9.206;2023-12-20T15:01:04;8.70;99.90
7970;DHT22;4030;52.362;9.206;2023-12-20T15:03:29;8.70;99.90
7970;DHT22;4030;52.362;9.206;2023-12-20T15:05:56;8.60;99.90
7970;DHT22;4030;52.362;9.206;2023-12-20T15:08:24;8.60;99.90
7970;DHT22;4030;52.362;9.206;2023-12-20T15:10:50;8.60;99.90
7970;DHT22;4030;52.362;9.206;2023-12-20T15:13:16;8.50;99.90
7970;DHT22;4030;52.362;9.206;2023-12-20T15:15:42;8.50;99.90
7970;DHT22;4030;52.362;9.206;2023-12-20T15:18:07;8.40;99.90
7970;DHT22;4030;52.362;9.206;2023-12-20T15:20:33;8.40;99.90
7970;DHT22;4030;52.362;9.206;2023-12-20T15:22:59;8.40;99.90
7970;DHT22;4030;52.362;9.206;2023-12-20T15:25:31;8.30;99.90
7970;DHT22;4030;52.362;9.206;2023-12-20T15:27:57;8.30;99.90
7970;DHT22;4030;52.362;9.206;2023-12-20T15:30:23;8.20;99.90
7970;DHT22;4030;52.362;9.206;2023-12-20T15:32:51;8.20;99.90
7970;DHT22;4030;52.362;9.206;2023-12-20T15:35:17;8.20;99.90
7970;DHT22;4030;52.362;9.206;2023-12-20T15:37:42;8.20;99.90
7970;DHT22;4030;52.362;9.206;2023-12-20T15:40:09;8.20;99.90
7970;DHT22;4030;52.362;9.206;2023-12-20T15:42:38;8.10;99.90
7970;DHT22;4030;52.362;9.206;2023-12-20T15:45:05;8.10;99.90
7970;DHT22;4030;52.362;9.206;2023-12-20T15:47:35;8.00;99.90
7970;DHT22;4030;52.362;9.206;2023-12-20T15:50:04;8.00;99.90
7970;DHT22;4030;52.362;9.206;2023-12-20T15:52:31;8.00;99.90
7970;DHT22;4030;52.362;9.206;2023-12-20T15:54:57;8.00;99.90
7970;DHT22;4030;52.362;9.206;2023-12-20T15:57:22;8.00;99.90
7970;DHT22;4030;52.362;9.206;2023-12-20T15:59:48;7.90;99.90
7970;DHT22;4030;52.362;9.206;2023-12-20T16:02:15;7.90;99.90
7970;DHT22;4030;52.362;9.206;2023-12-20T16:04:42;7.90;99.90
7970;DHT22;4030;52.362;9.206;2023-12-20T16:07:08;7.90;99.90
7970;DHT22;4030;52.362;9.206;2023-12-20T16:09:33;7.90;99.90
7970;DHT22;4030;52.362;9.206;2023-12-20T16:11:59;7.90;99.90
7970;DHT22;4030;52.362;9.206;2023-12-20T16:14:25;7.80;99.90
7970;DHT22;4030;52.362;9.206;2023-12-20T16:16:54;7.80;99.90